Time;durP1;ratioP1;P1;durP2;ratioP2;P2;SDS_P1;SDS_P2;PMS_P1;PMS_P2;Temp;Humidity;BMP_temperature;BMP_pressure;BME280_temperature;BME280_humidity;BME280_pressure;Samples;Min_cycle;Max_cycle;Signal;HPM_P1;HPM_P2
2021/03/19 00:05:11;;;;;;;106.73;47.43;;;;;;;-1.77;71.79;98544.95;507992;1100;104697;-42
2021/03/19 00:15:19;;;;;;;115.13;49.90;;;;;;;-1.86;71.75;98537.14;508249;1101;104344;-41
2021/03/19 00:25:25;;;;;;;122.27;50.57;;;;;;;-1.81;71.62;98539.27;507997;1101;104331;-41
2021/03/19 00:35:29;;;;;;;113.53;49.17;;;;;;;-1.98;71.91;98545.30;507995;1101;104718;-40
2021/03/19 00:45:35;;;;;;;91.87;46.30;;;;;;;-1.97;72.73;98537.37;507960;1102;104255;-40
2021/03/19 00:55:40;;;;;;;106.03;48.50;;;;;;;-1.96;72.71;98536.41;507887;1101;104334;-41
2021/03/19 01:05:46;;;;;;;110.43;48.53;;;;;;;-1.92;72.52;98517.00;507987;1101;104860;-40
2021/03/19 01:15:52;;;;;;;104.83;48.20;;;;;;;-1.92;73.23;98521.37;507990;1102;104386;-42
2021/03/19 01:25:57;;;;;;;106.37;46.60;;;;;;;-1.86;73.51;98519.00;507942;1101;104601;-43
2021/03/19 01:36:05;;;;;;;106.67;46.50;;;;;;;-1.90;72.80;98520.25;508012;1101;104335;-40
2021/03/19 01:46:46;;;;;;;110.63;47.55;;;;;;;-1.88;73.35;98512.34;507928;1101;104820;-40
2021/03/19 01:57:28;;;;;;;107.25;49.25;;;;;;;-1.89;73.18;98513.31;507850;1101;104360;-41
2021/03/19 02:08:17;;;;;;;136.10;59.13;;;;;;;-1.98;73.15;98507.25;507923;1101;105445;-42
2021/03/19 02:18:54;;;;;;;146.57;62.48;;;;;;;-1.88;73.49;98520.93;508502;1097;104316;-40
2021/03/19 02:29:34;;;;;;;152.17;65.00;;;;;;;-1.99;73.56;98520.36;507660;1102;104922;-40
2021/03/19 02:39:39;;;;;;;133.20;58.70;;;;;;;-2.03;74.16;98524.23;508026;1101;104341;-39
2021/03/19 02:49:44;;;;;;;124.80;55.80;;;;;;;-2.17;74.03;98522.98;507979;1102;104383;-40
2021/03/19 02:59:56;;;;;;;142.33;61.40;;;;;;;-2.12;74.12;98518.19;507963;1102;104265;-41
2021/03/19 03:10:01;;;;;;;143.10;62.13;;;;;;;-2.30;74.21;98517.41;507789;1102;104341;-41
2021/03/19 03:20:08;;;;;;;136.23;56.00;;;;;;;-2.36;74.11;98515.42;508085;1102;104329;-42
2021/03/19 03:30:20;;;;;;;130.23;55.40;;;;;;;-2.46;74.18;98505.14;508523;1101;105377;-42
2021/03/19 03:40:32;;;;;;;134.10;57.37;;;;;;;-2.40;74.82;98521.84;507900;1102;104351;-41
2021/03/19 03:50:38;;;;;;;135.37;54.27;;;;;;;-2.26;74.67;98518.73;507894;1101;104648;-42
2021/03/19 04:00:44;;;;;;;140.17;56.27;;;;;;;-2.24;74.68;98517.61;507788;1102;104344;-43
2021/03/19 04:10:48;;;;;;;138.00;53.40;;;;;;;-2.24;74.44;98514.20;507905;1102;104357;-41
2021/03/19 04:20:56;;;;;;;111.30;45.77;;;;;;;-2.37;75.00;98521.54;507803;1102;104325;-42
2021/03/19 04:31:05;;;;;;;101.80;43.27;;;;;;;-2.58;74.98;98527.06;507849;1102;104668;-42
2021/03/19 04:41:10;;;;;;;99.93;41.70;;;;;;;-2.82;74.86;98538.81;507902;1102;104408;-39
2021/03/19 04:51:15;;;;;;;105.17;41.67;;;;;;;-2.79;74.93;98538.52;507751;1102;104379;-41
2021/03/19 05:01:28;;;;;;;109.35;39.40;;;;;;;-2.82;75.32;98538.81;507974;1101;104664;-40
2021/03/19 05:11:35;;;;;;;101.67;42.53;;;;;;;-2.73;75.14;98555.22;508078;1102;105422;-42
2021/03/19 05:21:40;;;;;;;85.77;35.80;;;;;;;-2.59;75.27;98554.72;507867;1102;104699;-40
2021/03/19 05:31:48;;;;;;;90.67;37.27;;;;;;;-2.52;75.92;98563.52;507144;1102;104342;-44
2021/03/19 05:41:54;;;;;;;82.63;35.73;;;;;;;-2.29;76.29;98565.65;507887;1100;104395;-41
2021/03/19 05:52:01;;;;;;;112.97;43.23;;;;;;;-2.07;76.56;98572.95;507830;1102;105108;-39
2021/03/19 06:02:16;;;;;;;127.43;48.13;;;;;;;-1.83;76.24;98576.67;508198;1102;105434;-40
2021/03/19 06:12:26;;;;;;;121.47;47.90;;;;;;;-1.59;76.80;98580.22;508119;1102;104284;-40
2021/03/19 06:22:30;;;;;;;107.40;45.58;;;;;;;-1.40;76.83;98584.37;507839;1102;104277;-40
2021/03/19 06:32:39;;;;;;;103.30;42.00;;;;;;;-1.05;77.15;98583.37;507874;1102;104613;-40
2021/03/19 06:42:44;;;;;;;107.83;47.77;;;;;;;-0.70;76.38;98587.56;507880;1102;104724;-40
2021/03/19 06:52:50;;;;;;;108.50;45.30;;;;;;;-0.34;75.95;98587.27;507820;1102;104373;-40
2021/03/19 07:02:59;;;;;;;111.20;44.80;;;;;;;0.01;76.70;98585.34;507844;1102;105934;-40
2021/03/19 07:13:04;;;;;;;115.40;48.75;;;;;;;0.80;76.49;98587.12;508139;1102;104642;-41
2021/03/19 07:23:13;;;;;;;109.07;51.57;;;;;;;2.00;76.20;98588.36;507896;1102;105473;-41
2021/03/19 07:33:42;;;;;;;99.70;46.07;;;;;;;3.37;76.02;98585.22;507906;1102;104393;-40
2021/03/19 07:44:03;;;;;;;96.90;45.43;;;;;;;3.76;74.85;98594.45;507288;1101;105849;-41
2021/03/19 07:54:13;;;;;;;66.80;32.27;;;;;;;3.10;72.95;98604.20;507884;1101;104341;-42
2021/03/19 08:04:19;;;;;;;58.20;29.07;;;;;;;2.63;73.78;98598.37;507856;1102;104341;-42
2021/03/19 08:24:48;;;;;;;37.83;19.90;;;;;;;3.60;71.86;98598.14;508060;1102;104686;-41
2021/03/19 08:34:56;;;;;;;50.30;25.27;;;;;;;3.98;68.72;98593.45;507806;1102;104354;-43
2021/03/19 08:45:00;;;;;;;35.33;19.40;;;;;;;3.30;69.45;98598.19;507227;1102;104748;-40
2021/03/19 08:55:28;;;;;;;28.87;16.93;;;;;;;3.09;68.06;98606.00;508089;1102;104688;-41
2021/03/19 09:15:55;;;;;;;46.05;24.87;;;;;;;2.81;65.90;98595.38;507896;1102;104325;-41
2021/03/19 09:26:22;;;;;;;43.87;22.57;;;;;;;2.52;67.07;98595.38;508050;1102;104316;-42
2021/03/19 09:37:04;;;;;;;22.47;12.67;;;;;;;3.70;66.53;98590.78;508060;1102;104637;-42
2021/03/19 09:47:09;;;;;;;27.53;12.47;;;;;;;3.93;65.35;98585.36;508097;1102;104341;-41
2021/03/19 09:57:14;;;;;;;18.00;11.33;;;;;;;4.21;60.97;98591.42;507791;1101;104696;-41
2021/03/19 10:07:22;;;;;;;10.20;5.27;;;;;;;3.12;61.78;98595.19;508068;1102;104264;-42
2021/03/19 10:17:27;;;;;;;16.03;4.97;;;;;;;2.76;62.11;98582.06;507831;1101;104267;-40
2021/03/19 10:27:32;;;;;;;11.70;6.90;;;;;;;4.28;60.64;98576.60;508011;1101;104309;-41
2021/03/19 10:37:45;;;;;;;15.30;8.90;;;;;;;3.64;58.92;98579.27;507814;1101;104320;-42
2021/03/19 10:47:51;;;;;;;12.27;8.00;;;;;;;3.41;58.16;98591.69;507830;1102;104338;-42
2021/03/19 10:58:17;;;;;;;11.07;6.47;;;;;;;3.43;55.65;98594.93;508038;1102;104720;-42
2021/03/19 11:08:21;;;;;;;17.57;9.67;;;;;;;3.25;55.81;98591.91;508153;1101;104746;-39
2021/03/19 11:18:26;;;;;;;12.87;7.57;;;;;;;3.22;56.60;98607.95;507879;1102;104354;-39
2021/03/19 11:28:32;;;;;;;11.63;7.30;;;;;;;2.96;57.30;98604.02;507856;1102;104320;-39
2021/03/19 11:38:40;;;;;;;13.45;7.40;;;;;;;2.97;58.17;98600.42;507895;1101;104437;-42
2021/03/19 11:48:46;;;;;;;14.23;7.17;;;;;;;3.30;57.84;98608.64;507966;1102;104341;-41
2021/03/19 11:58:52;;;;;;;9.27;4.53;;;;;;;3.29;56.32;98607.03;508074;1102;104783;-39
2021/03/19 12:08:57;;;;;;;20.03;4.87;;;;;;;2.99;56.06;98606.27;507986;1102;104766;-41
2021/03/19 12:19:02;;;;;;;5.63;3.50;;;;;;;3.06;54.62;98612.38;508049;1102;104312;-39
2021/03/19 12:29:06;;;;;;;7.03;3.90;;;;;;;3.31;53.79;98609.45;508170;1102;104380;-40
2021/03/19 12:39:12;;;;;;;8.83;4.03;;;;;;;3.23;54.32;98609.58;507966;1100;104357;-40
2021/03/19 12:49:17;;;;;;;7.83;2.73;;;;;;;3.05;54.38;98609.95;507912;1102;104341;-43
2021/03/19 12:59:30;;;;;;;7.17;3.67;;;;;;;3.07;54.43;98611.38;508212;1102;104499;-39
2021/03/19 13:09:35;;;;;;;4.87;2.70;;;;;;;2.76;54.64;98614.20;508235;1102;104341;-42
2021/03/19 13:19:39;;;;;;;12.50;6.50;;;;;;;2.80;55.70;98609.42;508066;1101;104390;-41
2021/03/19 13:29:44;;;;;;;10.43;5.70;;;;;;;2.78;55.93;98595.74;507887;1102;104338;-42
2021/03/19 13:39:49;;;;;;;7.23;3.60;;;;;;;2.96;56.48;98590.16;507979;1101;104280;-43
2021/03/19 13:49:54;;;;;;;13.90;7.33;;;;;;;3.07;56.45;98582.65;508071;1102;104614;-41
2021/03/19 14:00:00;;;;;;;7.97;4.63;;;;;;;3.41;55.99;98583.85;507829;1101;104740;-43
2021/03/19 14:10:03;;;;;;;7.77;4.67;;;;;;;3.00;54.66;98581.77;508097;1101;104651;-39
2021/03/19 14:20:19;;;;;;;6.40;4.03;;;;;;;2.70;55.29;98578.38;507779;1101;104331;-41
2021/03/19 14:30:28;;;;;;;10.83;5.67;;;;;;;2.51;55.64;98578.09;507900;1101;104325;-39
2021/03/19 14:40:36;;;;;;;16.53;7.50;;;;;;;2.28;56.56;98571.14;507953;1101;104717;-39
2021/03/19 14:50:42;;;;;;;18.75;8.50;;;;;;;2.28;57.31;98571.14;507905;1101;104352;-41
2021/03/19 15:00:49;;;;;;;13.33;7.00;;;;;;;2.52;57.30;98566.66;507888;1101;104421;-41
2021/03/19 15:21:16;;;;;;;14.47;6.27;;;;;;;2.51;57.63;98565.05;508038;1102;104274;-44
2021/03/19 15:31:21;;;;;;;10.90;4.50;;;;;;;2.52;57.83;98582.33;507887;1102;105399;-42
2021/03/19 15:41:26;;;;;;;10.20;4.80;;;;;;;2.48;57.42;98576.66;508151;1101;104629;-40
2021/03/19 15:51:31;;;;;;;14.00;5.95;;;;;;;2.35;57.59;98584.28;507742;1102;104341;-40
2021/03/19 16:01:35;;;;;;;11.03;4.93;;;;;;;2.19;57.23;98600.11;507851;1101;104345;-42
2021/03/19 16:11:40;;;;;;;16.10;7.37;;;;;;;2.04;57.01;98598.27;508096;1102;104367;-41
2021/03/19 16:21:45;;;;;;;18.50;7.73;;;;;;;1.84;56.96;98602.33;507827;1101;104354;-41
2021/03/19 16:31:50;;;;;;;23.07;10.97;;;;;;;1.60;58.04;98615.53;507823;1101;104460;-41
2021/03/19 16:41:55;;;;;;;36.45;17.40;;;;;;;1.42;57.99;98634.03;507815;1102;104389;-40
2021/03/19 16:52:00;;;;;;;67.43;21.20;;;;;;;1.26;58.62;98642.75;508141;1101;104634;-42
2021/03/19 17:02:10;;;;;;;34.93;15.07;;;;;;;1.04;58.88;98654.72;507746;1101;104341;-45
2021/03/19 17:12:16;;;;;;;42.40;19.48;;;;;;;0.87;59.51;98656.55;508046;1101;104335;-42
2021/03/19 17:22:22;;;;;;;122.43;58.13;;;;;;;0.75;60.56;98675.31;507991;1101;104335;-41
2021/03/19 17:32:27;;;;;;;36.57;20.73;;;;;;;0.59;62.73;98697.77;507881;1101;104610;-40
2021/03/19 17:42:35;;;;;;;;;;;;;;;0.33;66.05;98715.34;507801;1101;104814;-41
2021/03/19 17:52:41;;;;;;;30.13;13.23;;;;;;;0.05;66.72;98724.42;507986;1101;104287;-40
2021/03/19 18:02:46;;;;;;;19.60;11.00;;;;;;;-0.17;68.23;98728.44;507901;1101;104399;-40
2021/03/19 18:12:51;;;;;;;34.77;16.10;;;;;;;-0.21;69.23;98734.92;507798;1100;104708;-43
2021/03/19 18:22:58;;;;;;;22.00;13.83;;;;;;;-0.42;70.98;98740.54;507669;1102;104457;-39
2021/03/19 18:33:03;;;;;;;16.43;9.17;;;;;;;-0.63;70.83;98749.55;508028;1102;104725;-39
2021/03/19 18:53:28;;;;;;;20.73;10.33;;;;;;;-0.71;70.95;98751.27;507852;1102;104370;-41
2021/03/19 19:03:33;;;;;;;27.70;12.83;;;;;;;-0.85;72.12;98770.03;507892;1102;104335;-40
2021/03/19 19:13:39;;;;;;;31.47;15.43;;;;;;;-0.86;72.00;98771.81;508191;1101;104706;-40
2021/03/19 19:23:44;;;;;;;25.43;12.50;;;;;;;-1.03;72.43;98796.03;508136;1101;104344;-41
2021/03/19 19:33:49;;;;;;;22.03;12.07;;;;;;;-1.10;73.48;98811.39;508027;1102;104341;-41
2021/03/19 19:43:55;;;;;;;31.27;15.40;;;;;;;-1.19;72.74;98814.06;507859;1101;104361;-41
2021/03/19 19:54:00;;;;;;;33.27;13.73;;;;;;;-1.25;74.57;98820.67;508099;1101;104313;-41
2021/03/19 20:04:05;;;;;;;26.65;13.40;;;;;;;-1.38;74.21;98823.66;508056;1101;104434;-40
2021/03/19 20:14:10;;;;;;;22.77;11.70;;;;;;;-1.50;74.58;98835.20;507820;1101;104341;-41
2021/03/19 20:24:18;;;;;;;33.93;15.30;;;;;;;-1.48;74.25;98833.28;507830;1101;104354;-41
2021/03/19 20:44:45;;;;;;;21.53;11.40;;;;;;;-1.50;74.36;98839.58;507765;1102;104341;-40
2021/03/19 20:54:52;;;;;;;26.93;11.50;;;;;;;-1.57;73.69;98852.33;507908;1101;104514;-42
2021/03/19 21:04:57;;;;;;;24.67;10.90;;;;;;;-1.56;73.30;98856.55;507873;1101;104338;-40
2021/03/19 21:15:01;;;;;;;18.13;8.67;;;;;;;-1.56;73.41;98869.52;507815;1101;104322;-39
2021/03/19 21:25:08;;;;;;;15.70;8.23;;;;;;;-1.64;73.96;98865.07;507767;1101;104806;-41
2021/03/19 21:35:13;;;;;;;15.53;9.33;;;;;;;-1.63;72.91;98874.48;507817;1101;104287;-40
2021/03/19 21:45:17;;;;;;;22.17;11.20;;;;;;;-1.63;73.33;98884.85;507881;1102;104409;-40
2021/03/19 21:55:24;;;;;;;19.00;11.85;;;;;;;-1.65;73.31;98897.15;507779;1100;104674;-40
2021/03/19 22:05:28;;;;;;;14.60;8.80;;;;;;;-1.79;72.52;98915.77;508004;1102;105451;-40
2021/03/19 22:15:33;;;;;;;14.40;9.20;;;;;;;-1.90;72.08;98924.53;507897;1102;104297;-40
2021/03/19 22:25:38;;;;;;;12.37;6.53;;;;;;;-1.96;71.83;98935.48;507909;1101;104709;-40
2021/03/19 22:35:44;;;;;;;13.20;8.25;;;;;;;-1.93;72.05;98936.96;507744;1102;104645;-40
2021/03/19 22:45:48;;;;;;;12.73;6.00;;;;;;;-2.09;70.89;98947.95;508264;1100;104341;-40
2021/03/19 22:55:54;;;;;;;15.13;6.47;;;;;;;-2.22;70.36;98957.80;508049;1101;104290;-40
2021/03/19 23:05:59;;;;;;;13.73;5.67;;;;;;;-2.30;69.99;98962.87;508030;1101;104348;-40
2021/03/19 23:16:07;;;;;;;8.97;3.73;;;;;;;-2.41;70.44;98979.36;508068;1101;104290;-42
2021/03/19 23:26:15;;;;;;;5.27;2.67;;;;;;;-2.61;68.93;98978.56;508025;1102;104342;-41
2021/03/19 23:36:20;;;;;;;7.97;3.20;;;;;;;-2.64;69.13;98994.37;508052;1102;104717;-40
2021/03/19 23:46:29;;;;;;;10.33;3.93;;;;;;;-2.60;69.06;98994.94;507862;1102;104634;-41
2021/03/19 23:56:36;;;;;;;10.18;4.70;;;;;;;-2.80;69.28;99002.70;507992;1101;104336;-40
